sensor_id;sensor_type;location;lat;lon;timestamp;P1;durP1;ratioP1;P2;durP2;ratioP2
20144;SDS011;10233;50.814;6.590;2023-03-31T00:00:52;3.22;;;0.93;;
20144;SDS011;10233;50.814;6.590;2023-03-31T00:01:57;3.03;;;1.05;;
20144;SDS011;10233;50.814;6.590;2023-03-31T00:02:57;6.13;;;1.05;;
20144;SDS011;10233;50.814;6.590;2023-03-31T00:03:58;3.67;;;1.00;;
20144;SDS011;10233;50.814;6.590;2023-03-31T00:05:03;5.00;;;1.10;;
20144;SDS011;10233;50.814;6.590;2023-03-31T00:06:04;3.10;;;0.98;;
20144;SDS011;10233;50.814;6.590;2023-03-31T00:07:05;4.10;;;0.80;;
20144;SDS011;10233;50.814;6.590;2023-03-31T00:08:09;7.22;;;1.00;;
20144;SDS011;10233;50.814;6.590;2023-03-31T00:09:13;3.70;;;1.02;;
20144;SDS011;10233;50.814;6.590;2023-03-31T00:10:21;2.50;;;1.00;;
20144;SDS011;10233;50.814;6.590;2023-03-31T00:11:22;3.25;;;0.93;;
20144;SDS011;10233;50.814;6.590;2023-03-31T00:12:23;4.47;;;0.90;;
20144;SDS011;10233;50.814;6.590;2023-03-31T00:13:23;2.72;;;0.98;;
20144;SDS011;10233;50.814;6.590;2023-03-31T00:14:24;6.97;;;1.23;;
20144;SDS011;10233;50.814;6.590;2023-03-31T00:15:25;3.83;;;1.10;;
20144;SDS011;10233;50.814;6.590;2023-03-31T00:16:26;6.57;;;0.88;;
20144;SDS011;10233;50.814;6.590;2023-03-31T00:17:27;6.45;;;1.15;;
20144;SDS011;10233;50.814;6.590;2023-03-31T00:18:27;4.77;;;1.10;;
20144;SDS011;10233;50.814;6.590;2023-03-31T00:19:29;4.85;;;0.95;;
20144;SDS011;10233;50.814;6.590;2023-03-31T00:20:32;4.55;;;0.88;;
20144;SDS011;10233;50.814;6.590;2023-03-31T00:21:37;6.50;;;1.10;;
20144;SDS011;10233;50.814;6.590;2023-03-31T00:22:37;4.88;;;0.90;;
20144;SDS011;10233;50.814;6.590;2023-03-31T00:23:41;3.53;;;1.08;;
20144;SDS011;10233;50.814;6.590;2023-03-31T00:24:42;5.90;;;1.13;;
20144;SDS011;10233;50.814;6.590;2023-03-31T00:25:43;6.18;;;1.10;;
20144;SDS011;10233;50.814;6.590;2023-03-31T00:26:44;5.15;;;1.00;;
20144;SDS011;10233;50.814;6.590;2023-03-31T00:27:45;5.53;;;1.40;;
20144;SDS011;10233;50.814;6.590;2023-03-31T00:28:49;3.27;;;1.03;;
20144;SDS011;10233;50.814;6.590;2023-03-31T00:29:50;5.70;;;1.10;;
20144;SDS011;10233;50.814;6.590;2023-03-31T00:30:58;6.68;;;1.20;;
20144;SDS011;10233;50.814;6.590;2023-03-31T00:32:00;4.25;;;1.10;;
20144;SDS011;10233;50.814;6.590;2023-03-31T00:33:01;5.72;;;1.20;;
20144;SDS011;10233;50.814;6.590;2023-03-31T00:34:01;8.07;;;1.15;;
20144;SDS011;10233;50.814;6.590;2023-03-31T00:35:02;3.43;;;1.13;;
20144;SDS011;10233;50.814;6.590;2023-03-31T00:36:04;4.25;;;1.27;;
20144;SDS011;10233;50.814;6.590;2023-03-31T00:37:05;6.25;;;1.10;;
20144;SDS011;10233;50.814;6.590;2023-03-31T00:38:08;5.97;;;1.25;;
20144;SDS011;10233;50.814;6.590;2023-03-31T00:39:14;5.18;;;1.10;;
20144;SDS011;10233;50.814;6.590;2023-03-31T00:40:17;7.20;;;1.10;;
20144;SDS011;10233;50.814;6.590;2023-03-31T00:41:18;5.18;;;1.17;;
20144;SDS011;10233;50.814;6.590;2023-03-31T00:42:19;3.72;;;0.80;;
20144;SDS011;10233;50.814;6.590;2023-03-31T00:43:30;5.65;;;1.55;;
20144;SDS011;10233;50.814;6.590;2023-03-31T00:44:37;6.13;;;1.02;;
20144;SDS011;10233;50.814;6.590;2023-03-31T00:46:14;4.10;;;0.93;;
20144;SDS011;10233;50.814;6.590;2023-03-31T00:47:19;7.20;;;1.10;;
20144;SDS011;10233;50.814;6.590;2023-03-31T00:48:20;4.15;;;1.50;;
20144;SDS011;10233;50.814;6.590;2023-03-31T00:49:38;3.65;;;1.13;;
20144;SDS011;10233;50.814;6.590;2023-03-31T00:50:59;8.95;;;1.45;;
20144;SDS011;10233;50.814;6.590;2023-03-31T00:52:21;5.32;;;0.95;;
20144;SDS011;10233;50.814;6.590;2023-03-31T00:53:26;4.97;;;0.80;;
20144;SDS011;10233;50.814;6.590;2023-03-31T00:54:29;5.53;;;1.58;;
20144;SDS011;10233;50.814;6.590;2023-03-31T00:55:33;2.85;;;0.88;;
20144;SDS011;10233;50.814;6.590;2023-03-31T00:56:39;3.33;;;0.65;;
20144;SDS011;10233;50.814;6.590;2023-03-31T00:57:43;6.85;;;1.10;;
20144;SDS011;10233;50.814;6.590;2023-03-31T00:58:46;5.85;;;1.10;;
20144;SDS011;10233;50.814;6.590;2023-03-31T00:59:49;3.80;;;0.88;;
20144;SDS011;10233;50.814;6.590;2023-03-31T01:00:56;4.60;;;1.20;;
20144;SDS011;10233;50.814;6.590;2023-03-31T01:01:57;4.80;;;1.00;;
20144;SDS011;10233;50.814;6.590;2023-03-31T01:03:03;9.80;;;1.83;;
20144;SDS011;10233;50.814;6.590;2023-03-31T01:04:09;6.03;;;1.30;;
20144;SDS011;10233;50.814;6.590;2023-03-31T01:05:14;7.15;;;1.75;;
20144;SDS011;10233;50.814;6.590;2023-03-31T01:06:15;3.72;;;1.08;;
20144;SDS011;10233;50.814;6.590;2023-03-31T01:08:32;9.80;;;1.48;;
20144;SDS011;10233;50.814;6.590;2023-03-31T01:09:35;7.50;;;1.53;;
20144;SDS011;10233;50.814;6.590;2023-03-31T01:10:39;4.97;;;1.58;;
20144;SDS011;10233;50.814;6.590;2023-03-31T01:11:44;9.82;;;1.67;;
20144;SDS011;10233;50.814;6.590;2023-03-31T01:12:48;5.53;;;1.40;;
20144;SDS011;10233;50.814;6.590;2023-03-31T01:13:54;10.00;;;1.70;;
20144;SDS011;10233;50.814;6.590;2023-03-31T01:14:56;9.73;;;1.80;;
20144;SDS011;10233;50.814;6.590;2023-03-31T01:15:58;7.53;;;1.70;;
20144;SDS011;10233;50.814;6.590;2023-03-31T01:17:00;9.27;;;1.77;;
20144;SDS011;10233;50.814;6.590;2023-03-31T01:18:02;11.98;;;2.10;;
20144;SDS011;10233;50.814;6.590;2023-03-31T01:19:06;5.97;;;1.30;;
20144;SDS011;10233;50.814;6.590;2023-03-31T01:22:18;6.55;;;1.50;;
20144;SDS011;10233;50.814;6.590;2023-03-31T01:24:07;8.50;;;1.40;;
20144;SDS011;10233;50.814;6.590;2023-03-31T01:29:06;8.13;;;1.48;;
20144;SDS011;10233;50.814;6.590;2023-03-31T01:31:53;5.40;;;1.30;;
20144;SDS011;10233;50.814;6.590;2023-03-31T01:34:47;7.35;;;1.80;;
20144;SDS011;10233;50.814;6.590;2023-03-31T01:46:32;7.50;;;1.33;;
20144;SDS011;10233;50.814;6.590;2023-03-31T01:49:23;6.03;;;1.65;;
20144;SDS011;10233;50.814;6.590;2023-03-31T01:50:54;11.35;;;1.77;;
20144;SDS011;10233;50.814;6.590;2023-03-31T01:54:18;7.68;;;1.30;;
20144;SDS011;10233;50.814;6.590;2023-03-31T01:55:21;7.75;;;1.40;;
20144;SDS011;10233;50.814;6.590;2023-03-31T01:56:34;8.60;;;1.65;;
20144;SDS011;10233;50.814;6.590;2023-03-31T01:57:42;5.43;;;1.35;;
20144;SDS011;10233;50.814;6.590;2023-03-31T02:01:16;5.72;;;1.00;;
20144;SDS011;10233;50.814;6.590;2023-03-31T02:02:24;4.97;;;1.33;;
20144;SDS011;10233;50.814;6.590;2023-03-31T02:03:32;5.95;;;1.15;;
20144;SDS011;10233;50.814;6.590;2023-03-31T02:04:39;6.57;;;1.15;;
20144;SDS011;10233;50.814;6.590;2023-03-31T02:05:48;3.88;;;1.05;;
20144;SDS011;10233;50.814;6.590;2023-03-31T02:06:55;4.38;;;1.20;;
20144;SDS011;10233;50.814;6.590;2023-03-31T02:08:04;4.68;;;1.30;;
20144;SDS011;10233;50.814;6.590;2023-03-31T02:09:11;5.07;;;1.23;;
20144;SDS011;10233;50.814;6.590;2023-03-31T02:10:16;6.18;;;1.00;;
20144;SDS011;10233;50.814;6.590;2023-03-31T02:11:19;6.45;;;1.20;;
20144;SDS011;10233;50.814;6.590;2023-03-31T02:12:21;4.68;;;0.93;;
20144;SDS011;10233;50.814;6.590;2023-03-31T02:13:28;4.57;;;1.02;;
20144;SDS011;10233;50.814;6.590;2023-03-31T02:14:33;5.93;;;1.05;;
20144;SDS011;10233;50.814;6.590;2023-03-31T02:15:41;5.93;;;1.25;;
20144;SDS011;10233;50.814;6.590;2023-03-31T02:16:46;6.30;;;1.30;;
20144;SDS011;10233;50.814;6.590;2023-03-31T02:17:57;4.78;;;1.23;;
20144;SDS011;10233;50.814;6.590;2023-03-31T02:19:03;5.57;;;1.40;;
20144;SDS011;10233;50.814;6.590;2023-03-31T02:20:06;5.70;;;1.45;;
20144;SDS011;10233;50.814;6.590;2023-03-31T02:21:11;5.57;;;1.10;;
20144;SDS011;10233;50.814;6.590;2023-03-31T02:22:13;4.22;;;1.13;;
20144;SDS011;10233;50.814;6.590;2023-03-31T02:23:21;3.10;;;1.00;;
20144;SDS011;10233;50.814;6.590;2023-03-31T02:24:25;5.15;;;1.33;;
20144;SDS011;10233;50.814;6.590;2023-03-31T02:25:32;5.97;;;1.30;;
20144;SDS011;10233;50.814;6.590;2023-03-31T02:26:40;6.20;;;1.80;;
20144;SDS011;10233;50.814;6.590;2023-03-31T02:28:03;4.50;;;1.20;;
20144;SDS011;10233;50.814;6.590;2023-03-31T02:29:11;5.18;;;1.02;;
20144;SDS011;10233;50.814;6.590;2023-03-31T02:30:12;7.50;;;1.43;;
20144;SDS011;10233;50.814;6.590;2023-03-31T02:31:25;6.10;;;1.35;;
20144;SDS011;10233;50.814;6.590;2023-03-31T02:32:30;7.55;;;1.58;;
20144;SDS011;10233;50.814;6.590;2023-03-31T02:33:36;7.10;;;1.47;;
20144;SDS011;10233;50.814;6.590;2023-03-31T02:34:38;5.80;;;1.20;;
20144;SDS011;10233;50.814;6.590;2023-03-31T02:35:38;8.77;;;1.30;;
20144;SDS011;10233;50.814;6.590;2023-03-31T02:36:40;4.73;;;1.30;;
20144;SDS011;10233;50.814;6.590;2023-03-31T02:37:43;8.68;;;1.17;;
20144;SDS011;10233;50.814;6.590;2023-03-31T02:39:06;7.95;;;1.40;;
20144;SDS011;10233;50.814;6.590;2023-03-31T02:40:11;8.43;;;1.55;;
20144;SDS011;10233;50.814;6.590;2023-03-31T02:41:16;6.77;;;1.20;;
20144;SDS011;10233;50.814;6.590;2023-03-31T02:42:17;3.95;;;0.90;;
20144;SDS011;10233;50.814;6.590;2023-03-31T02:43:18;6.47;;;1.27;;
20144;SDS011;10233;50.814;6.590;2023-03-31T02:44:20;3.38;;;1.00;;
20144;SDS011;10233;50.814;6.590;2023-03-31T02:46:42;3.88;;;1.30;;
20144;SDS011;10233;50.814;6.590;2023-03-31T02:47:44;5.93;;;1.30;;
20144;SDS011;10233;50.814;6.590;2023-03-31T02:48:48;4.33;;;0.80;;
20144;SDS011;10233;50.814;6.590;2023-03-31T02:49:53;6.75;;;1.10;;
20144;SDS011;10233;50.814;6.590;2023-03-31T02:52:17;4.10;;;1.02;;
20144;SDS011;10233;50.814;6.590;2023-03-31T02:53:37;5.35;;;1.17;;
20144;SDS011;10233;50.814;6.590;2023-03-31T02:56:29;3.85;;;0.90;;
20144;SDS011;10233;50.814;6.590;2023-03-31T03:01:36;3.83;;;0.90;;
20144;SDS011;10233;50.814;6.590;2023-03-31T03:09:44;3.10;;;0.77;;
20144;SDS011;10233;50.814;6.590;2023-03-31T03:12:44;6.18;;;1.08;;
20144;SDS011;10233;50.814;6.590;2023-03-31T03:16:25;4.00;;;0.90;;
20144;SDS011;10233;50.814;6.590;2023-03-31T03:17:36;4.10;;;0.70;;
20144;SDS011;10233;50.814;6.590;2023-03-31T03:19:02;2.45;;;0.82;;
20144;SDS011;10233;50.814;6.590;2023-03-31T03:20:04;4.07;;;1.00;;
20144;SDS011;10233;50.814;6.590;2023-03-31T03:21:08;3.38;;;0.80;;
20144;SDS011;10233;50.814;6.590;2023-03-31T03:22:09;2.88;;;0.80;;
20144;SDS011;10233;50.814;6.590;2023-03-31T03:23:09;2.55;;;0.60;;
20144;SDS011;10233;50.814;6.590;2023-03-31T03:24:10;2.80;;;0.60;;
20144;SDS011;10233;50.814;6.590;2023-03-31T03:25:12;2.22;;;0.68;;
20144;SDS011;10233;50.814;6.590;2023-03-31T03:26:16;3.70;;;0.50;;
20144;SDS011;10233;50.814;6.590;2023-03-31T03:27:20;3.45;;;0.80;;
20144;SDS011;10233;50.814;6.590;2023-03-31T03:28:23;1.83;;;0.50;;
20144;SDS011;10233;50.814;6.590;2023-03-31T03:29:24;1.67;;;0.40;;
20144;SDS011;10233;50.814;6.590;2023-03-31T03:30:26;1.38;;;0.47;;
20144;SDS011;10233;50.814;6.590;2023-03-31T03:31:26;1.85;;;0.82;;
20144;SDS011;10233;50.814;6.590;2023-03-31T03:32:27;2.40;;;0.50;;
20144;SDS011;10233;50.814;6.590;2023-03-31T03:33:28;1.08;;;0.52;;
20144;SDS011;10233;50.814;6.590;2023-03-31T03:34:29;1.85;;;0.52;;
20144;SDS011;10233;50.814;6.590;2023-03-31T03:35:30;3.78;;;0.63;;
20144;SDS011;10233;50.814;6.590;2023-03-31T03:36:30;2.20;;;0.50;;
20144;SDS011;10233;50.814;6.590;2023-03-31T03:37:32;3.67;;;0.63;;
20144;SDS011;10233;50.814;6.590;2023-03-31T03:38:34;1.85;;;0.75;;
20144;SDS011;10233;50.814;6.590;2023-03-31T03:39:35;5.85;;;0.93;;
20144;SDS011;10233;50.814;6.590;2023-03-31T03:40:36;4.13;;;0.60;;
20144;SDS011;10233;50.814;6.590;2023-03-31T03:41:37;1.33;;;0.43;;
20144;SDS011;10233;50.814;6.590;2023-03-31T03:42:39;1.85;;;0.52;;
20144;SDS011;10233;50.814;6.590;2023-03-31T03:43:39;3.33;;;0.67;;
20144;SDS011;10233;50.814;6.590;2023-03-31T03:44:40;1.48;;;0.40;;
20144;SDS011;10233;50.814;6.590;2023-03-31T03:45:41;3.65;;;0.63;;
20144;SDS011;10233;50.814;6.590;2023-03-31T03:46:41;4.23;;;0.60;;
20144;SDS011;10233;50.814;6.590;2023-03-31T03:47:42;4.25;;;0.60;;
20144;SDS011;10233;50.814;6.590;2023-03-31T03:48:43;4.30;;;0.70;;
20144;SDS011;10233;50.814;6.590;2023-03-31T03:49:43;3.43;;;0.63;;
20144;SDS011;10233;50.814;6.590;2023-03-31T03:50:44;3.45;;;0.68;;
20144;SDS011;10233;50.814;6.590;2023-03-31T03:51:45;1.90;;;0.60;;
20144;SDS011;10233;50.814;6.590;2023-03-31T03:52:46;2.25;;;0.70;;
20144;SDS011;10233;50.814;6.590;2023-03-31T03:53:47;3.60;;;0.70;;
20144;SDS011;10233;50.814;6.590;2023-03-31T03:54:47;3.03;;;0.70;;
20144;SDS011;10233;50.814;6.590;2023-03-31T03:55:48;3.20;;;0.60;;
20144;SDS011;10233;50.814;6.590;2023-03-31T03:56:49;3.67;;;0.70;;
20144;SDS011;10233;50.814;6.590;2023-03-31T03:57:49;2.10;;;0.70;;
20144;SDS011;10233;50.814;6.590;2023-03-31T03:58:50;3.20;;;0.60;;
20144;SDS011;10233;50.814;6.590;2023-03-31T03:59:51;3.37;;;0.80;;
20144;SDS011;10233;50.814;6.590;2023-03-31T04:00:51;1.95;;;0.57;;
20144;SDS011;10233;50.814;6.590;2023-03-31T04:01:52;1.75;;;0.50;;
20144;SDS011;10233;50.814;6.590;2023-03-31T04:02:53;2.20;;;0.40;;
20144;SDS011;10233;50.814;6.590;2023-03-31T04:03:53;1.83;;;0.50;;
20144;SDS011;10233;50.814;6.590;2023-03-31T04:04:54;3.83;;;0.80;;
20144;SDS011;10233;50.814;6.590;2023-03-31T04:05:54;1.90;;;0.60;;
20144;SDS011;10233;50.814;6.590;2023-03-31T04:06:55;4.13;;;0.85;;
20144;SDS011;10233;50.814;6.590;2023-03-31T04:07:56;1.37;;;0.63;;
20144;SDS011;10233;50.814;6.590;2023-03-31T04:08:56;2.40;;;0.60;;
20144;SDS011;10233;50.814;6.590;2023-03-31T04:09:57;2.40;;;0.80;;
20144;SDS011;10233;50.814;6.590;2023-03-31T04:10:57;3.78;;;0.63;;
20144;SDS011;10233;50.814;6.590;2023-03-31T04:11:58;1.63;;;0.60;;
20144;SDS011;10233;50.814;6.590;2023-03-31T04:12:59;4.55;;;0.73;;
20144;SDS011;10233;50.814;6.590;2023-03-31T04:14:00;3.73;;;0.80;;
20144;SDS011;10233;50.814;6.590;2023-03-31T04:15:01;3.40;;;0.80;;
20144;SDS011;10233;50.814;6.590;2023-03-31T04:16:02;3.53;;;0.70;;
20144;SDS011;10233;50.814;6.590;2023-03-31T04:17:02;1.88;;;0.60;;
20144;SDS011;10233;50.814;6.590;2023-03-31T04:18:03;3.23;;;0.80;;
20144;SDS011;10233;50.814;6.590;2023-03-31T04:19:03;1.25;;;0.50;;
20144;SDS011;10233;50.814;6.590;2023-03-31T04:20:08;2.87;;;0.63;;
20144;SDS011;10233;50.814;6.590;2023-03-31T04:21:11;4.72;;;0.88;;
20144;SDS011;10233;50.814;6.590;2023-03-31T04:22:21;2.60;;;0.60;;
20144;SDS011;10233;50.814;6.590;2023-03-31T04:23:22;1.50;;;0.60;;
20144;SDS011;10233;50.814;6.590;2023-03-31T04:24:25;3.23;;;0.70;;
20144;SDS011;10233;50.814;6.590;2023-03-31T04:25:30;1.77;;;0.60;;
20144;SDS011;10233;50.814;6.590;2023-03-31T04:26:32;1.90;;;0.60;;
20144;SDS011;10233;50.814;6.590;2023-03-31T04:27:47;1.25;;;0.60;;
20144;SDS011;10233;50.814;6.590;2023-03-31T04:28:58;3.65;;;0.77;;
20144;SDS011;10233;50.814;6.590;2023-03-31T04:29:59;2.97;;;0.88;;
20144;SDS011;10233;50.814;6.590;2023-03-31T04:31:00;3.45;;;0.65;;
20144;SDS011;10233;50.814;6.590;2023-03-31T04:32:02;2.15;;;0.80;;
20144;SDS011;10233;50.814;6.590;2023-03-31T04:33:03;3.38;;;0.75;;
20144;SDS011;10233;50.814;6.590;2023-03-31T04:34:05;4.38;;;0.60;;
20144;SDS011;10233;50.814;6.590;2023-03-31T04:35:12;1.77;;;0.55;;
20144;SDS011;10233;50.814;6.590;2023-03-31T04:36:14;3.00;;;0.65;;
20144;SDS011;10233;50.814;6.590;2023-03-31T04:37:17;1.90;;;0.63;;
20144;SDS011;10233;50.814;6.590;2023-03-31T04:38:19;3.75;;;0.77;;
20144;SDS011;10233;50.814;6.590;2023-03-31T04:39:23;3.40;;;0.73;;
20144;SDS011;10233;50.814;6.590;2023-03-31T04:40:29;2.42;;;0.77;;
20144;SDS011;10233;50.814;6.590;2023-03-31T04:41:33;3.10;;;0.70;;
20144;SDS011;10233;50.814;6.590;2023-03-31T04:42:33;2.35;;;0.77;;
20144;SDS011;10233;50.814;6.590;2023-03-31T04:43:34;2.13;;;0.60;;
20144;SDS011;10233;50.814;6.590;2023-03-31T04:44:34;2.67;;;0.70;;
20144;SDS011;10233;50.814;6.590;2023-03-31T04:45:35;2.40;;;0.60;;
20144;SDS011;10233;50.814;6.590;2023-03-31T04:46:35;1.70;;;0.60;;
20144;SDS011;10233;50.814;6.590;2023-03-31T04:47:36;3.97;;;0.77;;
20144;SDS011;10233;50.814;6.590;2023-03-31T04:48:37;2.22;;;0.70;;
20144;SDS011;10233;50.814;6.590;2023-03-31T04:49:38;3.15;;;0.60;;
20144;SDS011;10233;50.814;6.590;2023-03-31T04:50:42;2.25;;;0.70;;
20144;SDS011;10233;50.814;6.590;2023-03-31T04:51:42;2.75;;;0.60;;
20144;SDS011;10233;50.814;6.590;2023-03-31T04:52:44;2.97;;;0.70;;
20144;SDS011;10233;50.814;6.590;2023-03-31T04:53:44;2.70;;;0.50;;
20144;SDS011;10233;50.814;6.590;2023-03-31T04:54:45;2.65;;;0.60;;
20144;SDS011;10233;50.814;6.590;2023-03-31T04:55:47;1.83;;;0.53;;
20144;SDS011;10233;50.814;6.590;2023-03-31T04:56:48;1.50;;;0.40;;
20144;SDS011;10233;50.814;6.590;2023-03-31T04:57:48;1.95;;;0.60;;
20144;SDS011;10233;50.814;6.590;2023-03-31T04:58:50;2.75;;;0.65;;
20144;SDS011;10233;50.814;6.590;2023-03-31T04:59:51;2.80;;;0.50;;
20144;SDS011;10233;50.814;6.590;2023-03-31T05:00:52;2.58;;;0.60;;
20144;SDS011;10233;50.814;6.590;2023-03-31T05:01:53;2.58;;;0.68;;
20144;SDS011;10233;50.814;6.590;2023-03-31T05:02:53;2.40;;;0.50;;
20144;SDS011;10233;50.814;6.590;2023-03-31T05:03:54;3.30;;;0.80;;
20144;SDS011;10233;50.814;6.590;2023-03-31T05:04:54;3.83;;;0.57;;
20144;SDS011;10233;50.814;6.590;2023-03-31T05:05:55;3.65;;;0.55;;
20144;SDS011;10233;50.814;6.590;2023-03-31T05:06:55;2.10;;;0.60;;
20144;SDS011;10233;50.814;6.590;2023-03-31T05:07:56;2.47;;;0.60;;
20144;SDS011;10233;50.814;6.590;2023-03-31T05:08:57;3.00;;;0.60;;
20144;SDS011;10233;50.814;6.590;2023-03-31T05:09:57;1.03;;;0.40;;
20144;SDS011;10233;50.814;6.590;2023-03-31T05:10:58;2.60;;;0.57;;
20144;SDS011;10233;50.814;6.590;2023-03-31T05:11:58;1.40;;;0.50;;
20144;SDS011;10233;50.814;6.590;2023-03-31T05:12:59;1.08;;;0.43;;
20144;SDS011;10233;50.814;6.590;2023-03-31T05:13:59;2.07;;;0.50;;
20144;SDS011;10233;50.814;6.590;2023-03-31T05:15:00;2.58;;;0.50;;
20144;SDS011;10233;50.814;6.590;2023-03-31T05:16:08;3.40;;;0.70;;
20144;SDS011;10233;50.814;6.590;2023-03-31T05:17:11;1.05;;;0.47;;
20144;SDS011;10233;50.814;6.590;2023-03-31T05:18:11;3.37;;;0.50;;
20144;SDS011;10233;50.814;6.590;2023-03-31T05:19:12;1.85;;;0.60;;
20144;SDS011;10233;50.814;6.590;2023-03-31T05:20:13;1.23;;;0.50;;
20144;SDS011;10233;50.814;6.590;2023-03-31T05:21:14;1.63;;;0.40;;
20144;SDS011;10233;50.814;6.590;2023-03-31T05:22:17;2.28;;;0.40;;
20144;SDS011;10233;50.814;6.590;2023-03-31T05:23:19;2.13;;;0.50;;
20144;SDS011;10233;50.814;6.590;2023-03-31T05:24:20;2.00;;;0.63;;
20144;SDS011;10233;50.814;6.590;2023-03-31T05:25:21;0.80;;;0.30;;
20144;SDS011;10233;50.814;6.590;2023-03-31T05:26:23;2.50;;;0.52;;
20144;SDS011;10233;50.814;6.590;2023-03-31T05:27:24;1.73;;;0.50;;
20144;SDS011;10233;50.814;6.590;2023-03-31T05:28:25;2.50;;;0.40;;
20144;SDS011;10233;50.814;6.590;2023-03-31T05:29:25;4.28;;;0.60;;
20144;SDS011;10233;50.814;6.590;2023-03-31T05:30:26;1.20;;;0.40;;
20144;SDS011;10233;50.814;6.590;2023-03-31T05:31:27;1.65;;;0.40;;
20144;SDS011;10233;50.814;6.590;2023-03-31T05:32:28;0.80;;;0.40;;
20144;SDS011;10233;50.814;6.590;2023-03-31T05:33:29;3.30;;;0.45;;
20144;SDS011;10233;50.814;6.590;2023-03-31T05:34:30;1.55;;;0.55;;
20144;SDS011;10233;50.814;6.590;2023-03-31T05:35:30;1.20;;;0.30;;
20144;SDS011;10233;50.814;6.590;2023-03-31T05:36:31;2.00;;;0.40;;
20144;SDS011;10233;50.814;6.590;2023-03-31T05:37:31;1.00;;;0.65;;
20144;SDS011;10233;50.814;6.590;2023-03-31T05:38:32;1.60;;;0.50;;
20144;SDS011;10233;50.814;6.590;2023-03-31T05:39:33;2.30;;;0.30;;
20144;SDS011;10233;50.814;6.590;2023-03-31T05:40:34;1.20;;;0.40;;
20144;SDS011;10233;50.814;6.590;2023-03-31T05:41:35;1.40;;;0.45;;
20144;SDS011;10233;50.814;6.590;2023-03-31T05:42:35;1.67;;;0.40;;
20144;SDS011;10233;50.814;6.590;2023-03-31T05:43:37;0.68;;;0.40;;
20144;SDS011;10233;50.814;6.590;2023-03-31T05:44:38;6.68;;;0.80;;
20144;SDS011;10233;50.814;6.590;2023-03-31T05:45:39;1.90;;;0.30;;
20144;SDS011;10233;50.814;6.590;2023-03-31T05:46:40;2.03;;;1.02;;
20144;SDS011;10233;50.814;6.590;2023-03-31T05:47:41;0.60;;;0.30;;
20144;SDS011;10233;50.814;6.590;2023-03-31T05:48:41;1.73;;;0.70;;
20144;SDS011;10233;50.814;6.590;2023-03-31T05:49:43;2.05;;;0.43;;
20144;SDS011;10233;50.814;6.590;2023-03-31T05:50:44;1.50;;;0.30;;
20144;SDS011;10233;50.814;6.590;2023-03-31T05:51:45;2.55;;;0.30;;
20144;SDS011;10233;50.814;6.590;2023-03-31T05:52:46;0.52;;;0.25;;
20144;SDS011;10233;50.814;6.590;2023-03-31T05:53:47;1.85;;;0.30;;
20144;SDS011;10233;50.814;6.590;2023-03-31T05:54:47;1.70;;;0.40;;
20144;SDS011;10233;50.814;6.590;2023-03-31T05:55:48;1.60;;;0.50;;
20144;SDS011;10233;50.814;6.590;2023-03-31T05:56:49;1.90;;;0.70;;
20144;SDS011;10233;50.814;6.590;2023-03-31T05:57:49;1.98;;;0.57;;
20144;SDS011;10233;50.814;6.590;2023-03-31T05:58:50;1.00;;;0.30;;
20144;SDS011;10233;50.814;6.590;2023-03-31T05:59:51;1.70;;;0.40;;
20144;SDS011;10233;50.814;6.590;2023-03-31T06:02:07;0.93;;;0.35;;
20144;SDS011;10233;50.814;6.590;2023-03-31T06:03:12;1.10;;;0.28;;
20144;SDS011;10233;50.814;6.590;2023-03-31T06:04:12;2.10;;;0.40;;
20144;SDS011;10233;50.814;6.590;2023-03-31T06:05:13;0.30;;;0.30;;
20144;SDS011;10233;50.814;6.590;2023-03-31T06:06:14;1.33;;;0.37;;
20144;SDS011;10233;50.814;6.590;2023-03-31T06:07:18;2.40;;;0.40;;
20144;SDS011;10233;50.814;6.590;2023-03-31T06:08:19;3.27;;;0.20;;
20144;SDS011;10233;50.814;6.590;2023-03-31T06:09:19;0.73;;;0.25;;
20144;SDS011;10233;50.814;6.590;2023-03-31T06:10:20;0.80;;;0.30;;
20144;SDS011;10233;50.814;6.590;2023-03-31T06:11:21;2.25;;;0.98;;
20144;SDS011;10233;50.814;6.590;2023-03-31T06:12:22;1.77;;;0.52;;
20144;SDS011;10233;50.814;6.590;2023-03-31T06:13:22;1.50;;;0.57;;
20144;SDS011;10233;50.814;6.590;2023-03-31T06:14:23;1.73;;;0.40;;
20144;SDS011;10233;50.814;6.590;2023-03-31T06:15:24;1.85;;;0.40;;
20144;SDS011;10233;50.814;6.590;2023-03-31T06:16:25;1.65;;;0.50;;
20144;SDS011;10233;50.814;6.590;2023-03-31T06:17:25;2.20;;;0.40;;
20144;SDS011;10233;50.814;6.590;2023-03-31T06:18:27;1.40;;;0.30;;
20144;SDS011;10233;50.814;6.590;2023-03-31T06:19:29;1.67;;;0.40;;
20144;SDS011;10233;50.814;6.590;2023-03-31T06:20:30;2.10;;;0.30;;
20144;SDS011;10233;50.814;6.590;2023-03-31T06:21:32;0.95;;;0.20;;
20144;SDS011;10233;50.814;6.590;2023-03-31T06:22:35;1.50;;;0.30;;
20144;SDS011;10233;50.814;6.590;2023-03-31T06:23:35;1.20;;;0.23;;
20144;SDS011;10233;50.814;6.590;2023-03-31T06:24:36;0.27;;;0.20;;
20144;SDS011;10233;50.814;6.590;2023-03-31T06:25:37;0.98;;;0.40;;
20144;SDS011;10233;50.814;6.590;2023-03-31T06:26:37;1.20;;;0.30;;
20144;SDS011;10233;50.814;6.590;2023-03-31T06:27:38;0.80;;;0.30;;
20144;SDS011;10233;50.814;6.590;2023-03-31T06:28:40;0.52;;;0.28;;
20144;SDS011;10233;50.814;6.590;2023-03-31T06:29:43;1.30;;;0.40;;
20144;SDS011;10233;50.814;6.590;2023-03-31T06:30:44;1.58;;;0.35;;
20144;SDS011;10233;50.814;6.590;2023-03-31T06:31:44;1.57;;;0.40;;
20144;SDS011;10233;50.814;6.590;2023-03-31T06:32:45;1.90;;;0.45;;
20144;SDS011;10233;50.814;6.590;2023-03-31T06:33:46;1.20;;;0.40;;
20144;SDS011;10233;50.814;6.590;2023-03-31T06:34:47;2.05;;;0.32;;
20144;SDS011;10233;50.814;6.590;2023-03-31T06:35:47;1.03;;;0.40;;
20144;SDS011;10233;50.814;6.590;2023-03-31T06:36:48;1.00;;;0.32;;
20144;SDS011;10233;50.814;6.590;2023-03-31T06:37:48;1.00;;;0.30;;
20144;SDS011;10233;50.814;6.590;2023-03-31T06:38:49;0.50;;;0.30;;
20144;SDS011;10233;50.814;6.590;2023-03-31T06:39:50;1.10;;;0.45;;
20144;SDS011;10233;50.814;6.590;2023-03-31T06:40:51;1.57;;;0.50;;
20144;SDS011;10233;50.814;6.590;2023-03-31T06:41:52;0.85;;;0.40;;
20144;SDS011;10233;50.814;6.590;2023-03-31T06:42:59;1.08;;;0.40;;
20144;SDS011;10233;50.814;6.590;2023-03-31T06:44:01;1.05;;;0.32;;
20144;SDS011;10233;50.814;6.590;2023-03-31T06:45:02;0.80;;;0.40;;
20144;SDS011;10233;50.814;6.590;2023-03-31T06:46:03;1.33;;;0.45;;
20144;SDS011;10233;50.814;6.590;2023-03-31T06:47:04;1.70;;;0.40;;
20144;SDS011;10233;50.814;6.590;2023-03-31T06:48:04;1.00;;;0.50;;
20144;SDS011;10233;50.814;6.590;2023-03-31T06:49:05;2.50;;;0.60;;
20144;SDS011;10233;50.814;6.590;2023-03-31T06:50:09;1.85;;;0.52;;
20144;SDS011;10233;50.814;6.590;2023-03-31T06:51:11;2.38;;;0.50;;
20144;SDS011;10233;50.814;6.590;2023-03-31T06:52:12;1.55;;;0.30;;
20144;SDS011;10233;50.814;6.590;2023-03-31T06:53:13;2.30;;;0.45;;
20144;SDS011;10233;50.814;6.590;2023-03-31T06:54:14;1.67;;;0.43;;
20144;SDS011;10233;50.814;6.590;2023-03-31T06:55:15;2.40;;;0.60;;
20144;SDS011;10233;50.814;6.590;2023-03-31T06:56:16;1.98;;;0.60;;
20144;SDS011;10233;50.814;6.590;2023-03-31T06:57:16;2.87;;;0.63;;
20144;SDS011;10233;50.814;6.590;2023-03-31T06:58:17;1.35;;;0.50;;
20144;SDS011;10233;50.814;6.590;2023-03-31T06:59:17;2.00;;;0.57;;
20144;SDS011;10233;50.814;6.590;2023-03-31T07:00:18;1.10;;;0.50;;
20144;SDS011;10233;50.814;6.590;2023-03-31T07:01:18;2.33;;;0.60;;
20144;SDS011;10233;50.814;6.590;2023-03-31T07:02:19;2.20;;;0.60;;
20144;SDS011;10233;50.814;6.590;2023-03-31T07:03:20;1.05;;;0.40;;
20144;SDS011;10233;50.814;6.590;2023-03-31T07:04:24;1.40;;;0.50;;
20144;SDS011;10233;50.814;6.590;2023-03-31T07:05:24;1.70;;;0.43;;
20144;SDS011;10233;50.814;6.590;2023-03-31T07:06:28;2.10;;;0.40;;
20144;SDS011;10233;50.814;6.590;2023-03-31T07:07:32;2.50;;;0.60;;
20144;SDS011;10233;50.814;6.590;2023-03-31T07:08:33;1.27;;;0.40;;
20144;SDS011;10233;50.814;6.590;2023-03-31T07:09:33;1.73;;;0.40;;